Kalgoorlie Boulder Airport
YPKG : now visible

Airfield :











YOU CAN JOIN US ON...

 
LOGIN :

Register | Disclaimer

   EN    FR    IT 

 









Legend :    VFR   Marginal VFR   IFR   Intensive IFR   Very Intensive IFR
Visi :
Ceiling :
>= 8 km
>= 3000ft
5 to 8 km
1000 to 3000 ft
1500m to 5 km
500 to 1000 ft
800 to 1500m
200 to 500 ft
< 800m
< 200 ft
Symbols :   Thunderstorms  Fog  Heavy snow  Heavy precipitations  Wind > 20 kt






- Airport Elevation : 1203 ft
- IATA code : KGI


YPKG - Kalgoorlie Boulder

CURRENT METAR :
  • 281400Z AUTO 15006KT 9999 // NCD 13/03 Q1017 RF00.0/000.0

EXPIRED METARs :
  • 281330Z AUTO 15006KT 9999 // NCD 14/04 Q1017 RF00.0/000.0
  • 281300Z AUTO 15004KT 9999 // NCD 14/04 Q1017
  • 281230Z AUTO 13005KT 9999 // NCD 15/03 Q1017 RF00.0/000.0
  • 281200Z AUTO 14006KT 9999 // NCD 16/04 Q1018
  • 281130Z AUTO 13005KT 9999 // NCD 16/04 Q1018 RF00.0/000.0

TAF TAF YPKG
Valid from the 28 at 12:00 until the 29 at 12:00 UTC


281132Z 2812/2912 11008KT CAVOK
FM282200 07007KT 9999 SCT010
FM290000 05010KT CAVOK
FM290400 35008KT CAVOK
FM290900 VRB04KT CAVOK
YMMM FIR / Oceania



MET'MAP, your aeronautical weather chart ! - Copyright ORBIFLY December 2007 - Disclaimer

ORBIFLY MET'MAP TEAM :

Programming & Development : Alexandra Zaïnal
Concept & original design : Baudouin d'Aumeries
Assistance for programming : Marc-Olivier Méhu
Technical & hardware support : Manuel Goepfert

Contact : metmap@orbifly.com




SOURCES & CREDITS :

   NOAA       Earth
Advisory